Time;durP1;ratioP1;P1;durP2;ratioP2;P2;SDS_P1;SDS_P2;PMS_P1;PMS_P2;Temp;Humidity;BMP_temperature;BMP_pressure;BME280_temperature;BME280_humidity;BME280_pressure;Samples;Min_cycle;Max_cycle;Signal;HPM_P1;HPM_P2
2021/10/31 00:00:51;;;;;;;17.15;10.93;;;;;;;;;;4935291;28;20047;-65
2021/10/31 00:03:17;;;;;;;15.55;11.13;;;;;;;;;;4947067;28;20376;-65
2021/10/31 00:05:43;;;;;;;15.60;11.18;;;;;;;;;;4940909;28;20421;-65
2021/10/31 00:08:08;;;;;;;13.73;10.80;;;;;;;;;;4947473;28;20027;-65
2021/10/31 00:10:33;;;;;;;17.38;11.85;;;;;;;;;;4943486;28;20074;-65
2021/10/31 00:12:59;;;;;;;16.20;11.30;;;;;;;;;;4947768;28;20529;-66
2021/10/31 00:15:24;;;;;;;12.98;10.18;;;;;;;;;;4950716;28;20122;-65
2021/10/31 00:17:49;;;;;;;15.50;10.73;;;;;;;;;;4948985;28;20477;-66
2021/10/31 00:20:14;;;;;;;13.65;10.27;;;;;;;;;;4961957;28;20036;-65
2021/10/31 00:22:44;;;;;;;13.45;9.57;;;;;;;;;;4951089;28;20200;-65
2021/10/31 00:25:09;;;;;;;11.93;8.70;;;;;;;;;;4949927;28;20031;-66
2021/10/31 00:27:34;;;;;;;12.20;8.80;;;;;;;;;;4948836;28;20027;-66
2021/10/31 00:30:00;;;;;;;13.57;9.07;;;;;;;;;;4946287;28;20474;-66
2021/10/31 00:32:25;;;;;;;11.02;8.73;;;;;;;;;;4951148;28;20402;-66
2021/10/31 00:34:50;;;;;;;13.18;8.38;;;;;;;;;;4950774;28;20504;-66
2021/10/31 00:37:16;;;;;;;11.55;8.77;;;;;;;;;;4950333;28;20502;-66
2021/10/31 00:39:41;;;;;;;11.27;9.18;;;;;;;;;;4951037;28;20059;-66
2021/10/31 00:42:07;;;;;;;14.63;9.15;;;;;;;;;;4950286;28;20043;-66
2021/10/31 00:44:32;;;;;;;12.40;8.80;;;;;;;;;;4949938;28;20023;-66
2021/10/31 00:46:57;;;;;;;12.82;9.00;;;;;;;;;;4948957;28;20490;-66
2021/10/31 00:49:22;;;;;;;11.90;8.77;;;;;;;;;;4939321;28;20500;-66
2021/10/31 00:51:48;;;;;;;12.90;8.43;;;;;;;;;;4944180;28;20055;-65
2021/10/31 00:54:13;;;;;;;11.13;8.35;;;;;;;;;;4950511;28;20015;-65
2021/10/31 00:56:38;;;;;;;12.70;8.68;;;;;;;;;;4947920;28;20039;-67
2021/10/31 00:59:03;;;;;;;10.73;8.50;;;;;;;;;;4950471;28;20023;-64
2021/10/31 01:01:29;;;;;;;9.85;8.30;;;;;;;;;;4949534;28;20031;-64
2021/10/31 01:03:56;;;;;;;11.20;8.57;;;;;;;;;;4944102;29;20050;-66
2021/10/31 01:06:24;;;;;;;10.77;8.55;;;;;;;;;;4941945;28;20561;-64
2021/10/31 01:08:50;;;;;;;10.65;8.43;;;;;;;;;;4940702;28;20185;-64
2021/10/31 01:11:21;;;;;;;11.63;8.23;;;;;;;;;;4943669;28;20992;-64
2021/10/31 01:14:21;;;;;;;12.15;8.40;;;;;;;;;;4951227;28;20011;-64
2021/10/31 01:16:46;;;;;;;9.80;7.43;;;;;;;;;;4945989;28;20047;-66
2021/10/31 01:19:30;;;;;;;10.57;7.05;;;;;;;;;;4948928;28;20149;-64
2021/10/31 01:22:09;;;;;;;9.93;7.55;;;;;;;;;;4945131;28;20042;-65
2021/10/31 01:24:38;;;;;;;9.32;6.93;;;;;;;;;;4940525;28;20054;-65
2021/10/31 01:27:03;;;;;;;10.82;6.57;;;;;;;;;;4945447;28;20035;-64
2021/10/31 01:29:38;;;;;;;11.48;7.00;;;;;;;;;;4937697;29;20410;-65
2021/10/31 01:32:06;;;;;;;11.07;6.72;;;;;;;;;;4937225;28;20074;-66
2021/10/31 01:34:41;;;;;;;10.20;6.65;;;;;;;;;;4936586;29;20028;-64
2021/10/31 01:37:25;;;;;;;9.18;6.32;;;;;;;;;;4943914;28;20452;-66
2021/10/31 01:39:53;;;;;;;9.20;6.07;;;;;;;;;;4946215;29;20042;-68
2021/10/31 01:42:21;;;;;;;9.73;6.20;;;;;;;;;;4940721;28;20082;-68
2021/10/31 01:45:05;;;;;;;8.30;6.20;;;;;;;;;;4951984;28;20118;-65
2021/10/31 01:47:36;;;;;;;10.75;6.53;;;;;;;;;;4944940;28;20040;-65
2021/10/31 01:50:08;;;;;;;11.25;6.32;;;;;;;;;;4944874;28;20482;-64
2021/10/31 01:52:35;;;;;;;9.25;6.45;;;;;;;;;;4946111;28;20049;-64
2021/10/31 01:55:01;;;;;;;11.27;7.22;;;;;;;;;;4948509;28;20023;-65
2021/10/31 01:57:26;;;;;;;9.63;7.13;;;;;;;;;;4947631;29;20031;-65
2021/10/31 02:00:02;;;;;;;8.60;6.18;;;;;;;;;;4945254;29;20512;-64
2021/10/31 02:02:28;;;;;;;10.55;6.45;;;;;;;;;;4943027;29;20036;-64
2021/10/31 02:04:53;;;;;;;9.00;6.40;;;;;;;;;;4947920;29;20048;-64
2021/10/31 02:07:19;;;;;;;9.20;6.07;;;;;;;;;;4958402;28;20035;-64
2021/10/31 02:09:44;;;;;;;9.18;6.13;;;;;;;;;;4937952;28;20027;-64
2021/10/31 02:12:12;;;;;;;8.43;6.40;;;;;;;;;;4935169;29;20538;-64
2021/10/31 02:14:37;;;;;;;10.77;5.70;;;;;;;;;;4941422;29;20042;-64
2021/10/31 02:17:02;;;;;;;8.25;6.05;;;;;;;;;;4940217;28;20038;-64
2021/10/31 02:19:28;;;;;;;6.90;5.40;;;;;;;;;;4947722;28;20074;-64
2021/10/31 02:21:56;;;;;;;6.75;5.38;;;;;;;;;;4946756;29;20035;-65
2021/10/31 02:24:21;;;;;;;8.52;5.32;;;;;;;;;;4944438;29;20087;-65
2021/10/31 02:26:46;;;;;;;9.00;5.85;;;;;;;;;;4937500;28;20038;-64
2021/10/31 02:29:11;;;;;;;6.90;5.15;;;;;;;;;;4947362;28;20031;-64
2021/10/31 02:31:37;;;;;;;7.63;4.95;;;;;;;;;;4947583;28;20063;-65
2021/10/31 02:34:05;;;;;;;8.57;4.85;;;;;;;;;;4943281;28;20027;-65
2021/10/31 02:36:30;;;;;;;8.35;5.22;;;;;;;;;;4944063;28;20577;-65
2021/10/31 02:39:00;;;;;;;7.00;5.30;;;;;;;;;;4938180;29;20509;-64
2021/10/31 02:41:26;;;;;;;7.00;5.47;;;;;;;;;;4946701;28;20047;-64
2021/10/31 02:43:51;;;;;;;7.25;5.35;;;;;;;;;;4940307;28;20401;-64
2021/10/31 02:46:16;;;;;;;6.53;4.80;;;;;;;;;;4957090;28;20668;-64
2021/10/31 02:48:41;;;;;;;6.88;5.10;;;;;;;;;;4941260;28;20058;-64
2021/10/31 02:51:39;;;;;;;8.68;5.15;;;;;;;;;;4946000;28;20055;-64
2021/10/31 02:54:25;;;;;;;9.05;4.90;;;;;;;;;;4944962;28;20046;-64
2021/10/31 02:57:00;;;;;;;7.90;5.38;;;;;;;;;;4944721;28;20098;-64
2021/10/31 02:59:43;;;;;;;8.55;5.47;;;;;;;;;;4946488;29;20027;-64
2021/10/31 03:02:09;;;;;;;6.65;5.03;;;;;;;;;;4941760;28;20098;-64
2021/10/31 03:04:35;;;;;;;8.32;5.32;;;;;;;;;;4944015;28;20504;-64
2021/10/31 03:07:01;;;;;;;8.73;5.43;;;;;;;;;;4941762;28;20043;-64
2021/10/31 03:09:27;;;;;;;8.82;5.70;;;;;;;;;;4945976;28;20109;-65
2021/10/31 03:12:05;;;;;;;7.63;4.97;;;;;;;;;;4947764;28;20051;-64
2021/10/31 03:14:30;;;;;;;7.30;5.00;;;;;;;;;;4944412;29;20079;-64
2021/10/31 03:16:56;;;;;;;8.25;5.72;;;;;;;;;;4948075;28;20536;-64
2021/10/31 03:19:21;;;;;;;8.60;5.20;;;;;;;;;;4946189;28;20698;-64
2021/10/31 03:21:46;;;;;;;8.88;5.00;;;;;;;;;;4944169;28;20031;-64
2021/10/31 03:24:12;;;;;;;9.57;5.40;;;;;;;;;;4935852;29;20039;-64
2021/10/31 03:26:37;;;;;;;8.40;5.43;;;;;;;;;;4955422;28;20043;-64
2021/10/31 03:29:02;;;;;;;8.40;5.30;;;;;;;;;;4937862;28;20027;-64
2021/10/31 03:31:27;;;;;;;6.85;5.00;;;;;;;;;;4944438;28;20039;-64
2021/10/31 03:33:52;;;;;;;8.77;5.05;;;;;;;;;;4941766;28;20042;-64
2021/10/31 03:36:18;;;;;;;6.68;4.72;;;;;;;;;;4936244;28;20039;-64
2021/10/31 03:38:43;;;;;;;7.75;4.70;;;;;;;;;;4941359;28;20367;-65
2021/10/31 03:41:08;;;;;;;7.95;5.15;;;;;;;;;;4956218;28;20078;-65
2021/10/31 03:43:33;;;;;;;7.18;5.15;;;;;;;;;;4950479;28;20035;-65
2021/10/31 03:45:59;;;;;;;7.45;5.05;;;;;;;;;;4943741;28;20122;-64
2021/10/31 03:48:24;;;;;;;7.63;5.22;;;;;;;;;;4941493;28;20020;-65
2021/10/31 03:50:49;;;;;;;8.35;4.35;;;;;;;;;;4947221;28;20034;-64
2021/10/31 03:53:14;;;;;;;5.75;4.20;;;;;;;;;;4932691;28;20039;-66
2021/10/31 03:55:39;;;;;;;6.97;4.55;;;;;;;;;;4941824;28;20043;-64
2021/10/31 03:58:05;;;;;;;6.40;4.43;;;;;;;;;;4947227;28;20053;-64
2021/10/31 04:00:30;;;;;;;6.35;4.18;;;;;;;;;;4946944;28;20035;-64
2021/10/31 04:02:55;;;;;;;6.63;4.30;;;;;;;;;;4941088;28;20034;-64
2021/10/31 04:05:20;;;;;;;7.68;3.90;;;;;;;;;;4946184;28;20035;-64
2021/10/31 04:07:47;;;;;;;6.60;4.20;;;;;;;;;;4950193;28;20032;-66
2021/10/31 04:10:12;;;;;;;8.75;3.78;;;;;;;;;;4946807;28;20477;-66
2021/10/31 04:12:38;;;;;;;6.60;3.97;;;;;;;;;;4947191;28;20045;-66
2021/10/31 04:15:04;;;;;;;5.82;3.85;;;;;;;;;;4938932;28;20047;-66
2021/10/31 04:17:29;;;;;;;6.38;4.20;;;;;;;;;;4938680;28;20023;-65
2021/10/31 04:19:54;;;;;;;6.05;4.05;;;;;;;;;;4946444;28;20023;-66
2021/10/31 04:22:19;;;;;;;10.77;4.75;;;;;;;;;;4942726;28;20525;-65
2021/10/31 04:24:44;;;;;;;7.53;4.32;;;;;;;;;;4947026;29;20612;-66
2021/10/31 04:27:10;;;;;;;7.10;4.30;;;;;;;;;;4945990;28;20549;-66
2021/10/31 04:29:35;;;;;;;7.90;4.65;;;;;;;;;;4945267;28;20023;-65
2021/10/31 04:32:00;;;;;;;8.10;4.60;;;;;;;;;;4949162;28;20390;-65
2021/10/31 04:34:26;;;;;;;6.90;4.78;;;;;;;;;;4946215;28;20031;-65
2021/10/31 04:36:51;;;;;;;6.72;4.70;;;;;;;;;;4947055;28;20086;-65
2021/10/31 04:39:17;;;;;;;8.75;4.28;;;;;;;;;;4947207;28;20054;-66
2021/10/31 04:41:45;;;;;;;7.93;3.95;;;;;;;;;;4940834;28;20105;-65
2021/10/31 04:44:10;;;;;;;6.53;4.30;;;;;;;;;;4937578;28;20486;-66
2021/10/31 04:46:35;;;;;;;7.00;4.53;;;;;;;;;;4939687;28;20059;-65
2021/10/31 04:49:00;;;;;;;9.20;4.97;;;;;;;;;;4945913;28;20086;-65
2021/10/31 04:51:25;;;;;;;8.55;4.85;;;;;;;;;;4945360;28;20079;-65
2021/10/31 04:53:51;;;;;;;6.70;4.90;;;;;;;;;;4940747;28;20031;-65
2021/10/31 04:56:17;;;;;;;10.02;5.00;;;;;;;;;;4943844;28;20071;-65
2021/10/31 04:58:42;;;;;;;9.35;5.07;;;;;;;;;;4942631;28;20114;-65
2021/10/31 05:01:07;;;;;;;9.15;5.80;;;;;;;;;;4947607;28;20043;-65
2021/10/31 05:03:32;;;;;;;8.57;5.93;;;;;;;;;;4944083;28;20193;-65
2021/10/31 05:05:59;;;;;;;10.82;6.35;;;;;;;;;;4948469;28;20039;-65
2021/10/31 05:08:25;;;;;;;8.73;5.63;;;;;;;;;;4950049;28;20019;-65
2021/10/31 05:10:50;;;;;;;8.82;6.00;;;;;;;;;;4946582;28;20611;-65
2021/10/31 05:13:15;;;;;;;7.28;5.38;;;;;;;;;;4955686;28;20505;-65
2021/10/31 05:15:40;;;;;;;10.57;6.03;;;;;;;;;;4948889;28;20055;-65
2021/10/31 05:18:06;;;;;;;6.63;5.50;;;;;;;;;;4944292;29;20022;-65
2021/10/31 05:20:31;;;;;;;7.63;6.22;;;;;;;;;;4942528;28;20048;-65
2021/10/31 05:22:56;;;;;;;8.77;5.65;;;;;;;;;;4947962;29;20038;-65
2021/10/31 05:25:22;;;;;;;9.35;6.18;;;;;;;;;;4946269;28;20051;-65
2021/10/31 05:27:47;;;;;;;12.48;6.13;;;;;;;;;;4937470;28;20034;-65
2021/10/31 05:30:13;;;;;;;12.50;6.60;;;;;;;;;;4947578;28;20039;-65
2021/10/31 05:32:38;;;;;;;13.23;6.57;;;;;;;;;;4946432;28;20031;-65
2021/10/31 05:35:04;;;;;;;8.85;6.75;;;;;;;;;;4948806;28;20023;-65
2021/10/31 05:37:39;;;;;;;8.23;6.05;;;;;;;;;;4946724;28;20023;-65
2021/10/31 05:40:04;;;;;;;11.25;6.95;;;;;;;;;;4940681;28;20029;-64
2021/10/31 05:42:30;;;;;;;9.10;6.20;;;;;;;;;;4943336;28;20050;-64
2021/10/31 05:44:55;;;;;;;8.02;6.00;;;;;;;;;;4946306;28;20386;-64
2021/10/31 05:47:20;;;;;;;12.55;6.70;;;;;;;;;;4941787;28;20394;-64
2021/10/31 05:49:45;;;;;;;7.22;5.55;;;;;;;;;;4948608;28;20478;-64
2021/10/31 05:52:10;;;;;;;11.32;7.40;;;;;;;;;;4947185;28;20576;-64
2021/10/31 05:54:36;;;;;;;10.43;7.43;;;;;;;;;;4948861;28;20026;-66
2021/10/31 05:57:01;;;;;;;10.23;6.95;;;;;;;;;;4948661;28;20056;-66
2021/10/31 05:59:26;;;;;;;9.75;6.82;;;;;;;;;;4959924;28;20023;-65
2021/10/31 06:01:51;;;;;;;10.43;7.40;;;;;;;;;;4937591;28;20051;-64
2021/10/31 06:04:17;;;;;;;11.20;7.13;;;;;;;;;;4939572;29;20128;-64
2021/10/31 06:06:42;;;;;;;13.18;7.22;;;;;;;;;;4939727;28;20039;-65
2021/10/31 06:09:07;;;;;;;12.00;6.35;;;;;;;;;;4948865;28;20359;-64
2021/10/31 06:11:34;;;;;;;9.27;6.50;;;;;;;;;;4933453;29;20050;-64
2021/10/31 06:13:59;;;;;;;10.88;7.05;;;;;;;;;;4941008;29;20058;-64
2021/10/31 06:16:25;;;;;;;9.70;6.57;;;;;;;;;;4948476;28;20027;-64
2021/10/31 06:18:50;;;;;;;9.82;6.55;;;;;;;;;;4947677;28;20386;-64
2021/10/31 06:21:15;;;;;;;7.28;5.40;;;;;;;;;;4944486;28;20032;-64
2021/10/31 06:23:41;;;;;;;11.35;6.43;;;;;;;;;;4943326;28;20023;-66
2021/10/31 06:26:06;;;;;;;9.38;5.82;;;;;;;;;;4948299;28;20047;-64
2021/10/31 06:28:31;;;;;;;9.40;6.38;;;;;;;;;;4957390;28;20114;-64
2021/10/31 06:30:56;;;;;;;8.18;6.30;;;;;;;;;;4948520;28;20032;-64
2021/10/31 06:33:22;;;;;;;12.95;8.48;;;;;;;;;;4952050;28;20038;-64
2021/10/31 06:35:47;;;;;;;13.25;9.38;;;;;;;;;;4954924;28;20402;-64
2021/10/31 06:38:12;;;;;;;13.98;10.13;;;;;;;;;;4948647;28;20491;-64
2021/10/31 06:40:37;;;;;;;18.85;10.50;;;;;;;;;;4948288;28;20890;-64
2021/10/31 06:43:02;;;;;;;13.13;10.18;;;;;;;;;;4944301;28;20102;-64
2021/10/31 06:45:28;;;;;;;12.63;8.40;;;;;;;;;;4941510;28;20435;-64
2021/10/31 06:47:53;;;;;;;13.73;8.73;;;;;;;;;;4940953;28;20113;-64
2021/10/31 06:50:18;;;;;;;10.02;8.30;;;;;;;;;;4937867;28;20582;-65
2021/10/31 06:52:44;;;;;;;10.65;7.93;;;;;;;;;;4945639;29;20141;-64
2021/10/31 06:55:10;;;;;;;9.65;7.50;;;;;;;;;;4948116;28;20078;-65
2021/10/31 06:57:37;;;;;;;11.50;7.45;;;;;;;;;;4943401;28;20557;-64
2021/10/31 07:00:03;;;;;;;10.88;7.47;;;;;;;;;;4946302;28;20089;-66
2021/10/31 07:02:28;;;;;;;11.27;7.35;;;;;;;;;;4946558;28;20148;-65
2021/10/31 07:04:53;;;;;;;11.15;6.85;;;;;;;;;;4944126;28;20035;-65
2021/10/31 07:07:19;;;;;;;12.30;7.15;;;;;;;;;;4943899;28;20044;-66
2021/10/31 07:09:45;;;;;;;9.60;7.35;;;;;;;;;;4943685;28;20019;-64
2021/10/31 07:12:10;;;;;;;9.70;6.95;;;;;;;;;;4947190;28;20051;-65
2021/10/31 07:14:36;;;;;;;9.80;6.85;;;;;;;;;;4948049;28;20051;-65
2021/10/31 07:17:01;;;;;;;10.25;6.63;;;;;;;;;;4946212;28;20039;-65
2021/10/31 07:19:26;;;;;;;12.60;7.70;;;;;;;;;;4943731;28;20441;-66
2021/10/31 07:21:51;;;;;;;10.63;6.75;;;;;;;;;;4952883;28;20142;-66
2021/10/31 07:24:16;;;;;;;8.85;6.97;;;;;;;;;;4942480;28;20023;-64
2021/10/31 07:26:42;;;;;;;10.25;6.75;;;;;;;;;;4941193;28;20175;-67
2021/10/31 07:29:08;;;;;;;10.27;7.47;;;;;;;;;;4946100;28;20106;-67
2021/10/31 07:31:36;;;;;;;10.43;6.82;;;;;;;;;;4941039;28;20056;-64
2021/10/31 07:34:01;;;;;;;11.10;7.43;;;;;;;;;;4947389;28;20106;-66
2021/10/31 07:36:27;;;;;;;12.77;7.90;;;;;;;;;;4943278;28;20121;-65
2021/10/31 07:38:52;;;;;;;8.65;5.20;;;;;;;;;;4943837;28;20437;-65
2021/10/31 07:41:17;;;;;;;6.88;5.47;;;;;;;;;;4940401;28;20072;-65
2021/10/31 07:43:42;;;;;;;9.55;5.82;;;;;;;;;;4939682;29;20425;-65
2021/10/31 07:46:08;;;;;;;6.47;5.07;;;;;;;;;;4947160;28;20043;-65
2021/10/31 07:48:33;;;;;;;10.10;4.95;;;;;;;;;;4944301;28;20032;-65
2021/10/31 07:50:58;;;;;;;8.18;4.80;;;;;;;;;;4945224;28;20371;-65
2021/10/31 07:53:23;;;;;;;6.90;4.57;;;;;;;;;;4934621;28;20047;-65
2021/10/31 07:55:52;;;;;;;7.60;4.38;;;;;;;;;;4946223;28;20077;-65
2021/10/31 07:58:20;;;;;;;8.07;4.40;;;;;;;;;;4947024;28;20019;-65
2021/10/31 08:00:46;;;;;;;7.55;4.63;;;;;;;;;;4942790;28;20119;-65
2021/10/31 08:03:11;;;;;;;6.45;3.90;;;;;;;;;;4944440;28;20133;-65
2021/10/31 08:05:38;;;;;;;8.73;4.63;;;;;;;;;;4941638;28;20071;-66
2021/10/31 08:08:03;;;;;;;7.47;4.05;;;;;;;;;;4946793;28;20024;-66
2021/10/31 08:10:28;;;;;;;12.60;7.40;;;;;;;;;;4946746;28;20046;-67
2021/10/31 08:12:53;;;;;;;6.60;4.65;;;;;;;;;;4943536;29;20039;-66
2021/10/31 08:15:19;;;;;;;10.63;4.72;;;;;;;;;;4937591;28;20551;-66
2021/10/31 08:17:44;;;;;;;10.70;6.70;;;;;;;;;;4936167;28;20070;-66
2021/10/31 08:20:10;;;;;;;7.60;5.30;;;;;;;;;;4939375;28;20020;-66
2021/10/31 08:22:35;;;;;;;6.50;4.90;;;;;;;;;;4946105;28;20023;-66
2021/10/31 08:25:01;;;;;;;11.48;4.57;;;;;;;;;;4956982;28;20047;-66
2021/10/31 08:27:28;;;;;;;6.32;4.47;;;;;;;;;;4947623;28;20038;-66
2021/10/31 08:29:55;;;;;;;16.55;12.35;;;;;;;;;;4945698;29;20402;-66
2021/10/31 08:32:23;;;;;;;11.88;8.82;;;;;;;;;;4942851;28;20047;-66
2021/10/31 08:34:48;;;;;;;7.15;5.28;;;;;;;;;;4943520;28;20073;-65
2021/10/31 08:37:13;;;;;;;8.68;4.30;;;;;;;;;;4950443;28;20047;-66
2021/10/31 08:39:39;;;;;;;5.95;4.43;;;;;;;;;;4949919;28;20031;-66
2021/10/31 08:42:04;;;;;;;6.55;4.18;;;;;;;;;;4946081;28;20062;-66
2021/10/31 08:44:30;;;;;;;15.32;10.77;;;;;;;;;;4950267;28;20409;-68
2021/10/31 08:46:55;;;;;;;6.55;4.40;;;;;;;;;;4947276;28;20130;-66
2021/10/31 08:49:20;;;;;;;5.40;3.92;;;;;;;;;;4939151;29;20042;-66
2021/10/31 08:51:45;;;;;;;7.05;4.28;;;;;;;;;;4941928;28;20070;-66
2021/10/31 08:54:11;;;;;;;9.15;4.88;;;;;;;;;;4942437;28;20054;-65
2021/10/31 08:56:36;;;;;;;7.05;4.03;;;;;;;;;;4948190;28;20047;-65
2021/10/31 08:59:01;;;;;;;6.32;4.25;;;;;;;;;;4962344;28;20427;-65
2021/10/31 09:01:27;;;;;;;8.75;4.13;;;;;;;;;;4942157;28;20043;-65
2021/10/31 09:03:53;;;;;;;5.35;4.30;;;;;;;;;;4941340;29;20122;-66
2021/10/31 09:06:18;;;;;;;9.13;5.68;;;;;;;;;;4941998;28;20118;-65
2021/10/31 09:08:43;;;;;;;4.95;3.60;;;;;;;;;;4943347;28;20087;-67
2021/10/31 09:11:09;;;;;;;8.73;3.83;;;;;;;;;;4949129;28;20043;-67
2021/10/31 09:13:34;;;;;;;5.53;3.80;;;;;;;;;;4950162;28;20027;-66
2021/10/31 09:16:00;;;;;;;4.88;3.60;;;;;;;;;;4944886;28;20047;-67
2021/10/31 09:18:25;;;;;;;9.73;3.15;;;;;;;;;;4949431;28;20119;-67
2021/10/31 09:20:51;;;;;;;9.52;3.65;;;;;;;;;;4956972;28;20118;-67
2021/10/31 09:23:16;;;;;;;4.45;2.90;;;;;;;;;;4953954;28;20488;-67
2021/10/31 09:25:41;;;;;;;5.68;3.53;;;;;;;;;;4947624;28;20048;-68
2021/10/31 09:28:07;;;;;;;6.50;2.90;;;;;;;;;;4932818;29;20035;-68
2021/10/31 09:30:33;;;;;;;5.72;3.40;;;;;;;;;;4942529;28;20141;-67
2021/10/31 09:32:58;;;;;;;4.22;3.00;;;;;;;;;;4949186;28;20042;-69
2021/10/31 09:35:25;;;;;;;4.60;2.70;;;;;;;;;;4945738;28;20474;-67
2021/10/31 09:37:56;;;;;;;3.80;2.60;;;;;;;;;;4940239;28;20023;-68
2021/10/31 09:40:22;;;;;;;5.15;2.72;;;;;;;;;;4940036;28;20126;-68
2021/10/31 09:42:49;;;;;;;3.95;2.50;;;;;;;;;;4936567;28;20106;-68
2021/10/31 09:45:14;;;;;;;5.13;2.33;;;;;;;;;;4943450;28;20421;-67
2021/10/31 09:47:39;;;;;;;5.85;2.40;;;;;;;;;;4949569;28;20043;-68
2021/10/31 09:50:05;;;;;;;7.05;2.28;;;;;;;;;;4944275;28;20020;-68
2021/10/31 09:52:30;;;;;;;3.40;2.08;;;;;;;;;;4947704;29;20035;-67
2021/10/31 09:54:56;;;;;;;6.82;2.10;;;;;;;;;;4955445;28;20031;-67
2021/10/31 09:57:21;;;;;;;5.57;2.20;;;;;;;;;;4945205;28;20855;-67
2021/10/31 09:59:53;;;;;;;4.38;2.03;;;;;;;;;;4943796;28;20122;-67
2021/10/31 10:05:02;;;;;;;3.38;2.30;;;;;;;;;;4943881;28;20042;-68
2021/10/31 10:07:27;;;;;;;3.75;2.20;;;;;;;;;;4941927;28;20381;-68
2021/10/31 10:09:53;;;;;;;4.20;2.78;;;;;;;;;;4947740;28;20544;-66
2021/10/31 10:12:19;;;;;;;2.75;1.90;;;;;;;;;;4944334;28;20050;-65
2021/10/31 10:14:48;;;;;;;3.22;2.00;;;;;;;;;;4940931;28;20342;-65
2021/10/31 10:17:14;;;;;;;3.45;1.80;;;;;;;;;;4952568;28;20066;-66
2021/10/31 10:19:46;;;;;;;5.53;2.17;;;;;;;;;;4949005;28;20050;-67
2021/10/31 10:22:14;;;;;;;6.03;2.25;;;;;;;;;;4946081;28;20039;-66
2021/10/31 10:24:49;;;;;;;4.28;1.90;;;;;;;;;;4942729;28;20106;-66
2021/10/31 10:27:14;;;;;;;3.70;1.90;;;;;;;;;;4948510;28;20109;-66
2021/10/31 10:29:40;;;;;;;2.35;1.55;;;;;;;;;;4948714;28;20019;-66
2021/10/31 10:32:06;;;;;;;4.93;1.75;;;;;;;;;;4944945;28;20073;-67
2021/10/31 10:37:11;;;;;;;5.13;1.80;;;;;;;;;;4941867;28;20138;-67
2021/10/31 10:39:36;;;;;;;3.50;1.60;;;;;;;;;;4948900;28;20034;-68
2021/10/31 10:42:01;;;;;;;2.75;1.60;;;;;;;;;;4946107;28;20545;-67
2021/10/31 10:44:31;;;;;;;1.88;1.60;;;;;;;;;;4941801;28;20019;-67
2021/10/31 10:46:58;;;;;;;4.47;1.52;;;;;;;;;;4939727;28;20047;-66
2021/10/31 10:49:24;;;;;;;3.08;1.45;;;;;;;;;;4943014;29;20395;-66
2021/10/31 10:52:08;;;;;;;2.33;1.48;;;;;;;;;;4943241;28;20054;-66
2021/10/31 10:54:34;;;;;;;3.20;1.67;;;;;;;;;;4958315;28;20386;-67
2021/10/31 10:57:00;;;;;;;3.03;1.90;;;;;;;;;;4954835;28;20046;-67
2021/10/31 10:59:26;;;;;;;2.28;1.50;;;;;;;;;;4939402;28;20031;-66
2021/10/31 11:02:10;;;;;;;3.47;1.77;;;;;;;;;;4939718;28;20039;-66
2021/10/31 11:04:36;;;;;;;5.53;1.67;;;;;;;;;;4947644;28;20560;-66
2021/10/31 11:07:02;;;;;;;2.85;1.75;;;;;;;;;;4943576;28;20063;-66
2021/10/31 11:09:35;;;;;;;13.35;4.22;;;;;;;;;;4947727;28;20019;-66
2021/10/31 11:12:00;;;;;;;8.13;2.67;;;;;;;;;;4941161;29;20047;-66
2021/10/31 11:14:25;;;;;;;4.22;1.75;;;;;;;;;;4940668;28;20362;-67
2021/10/31 11:16:50;;;;;;;2.33;1.80;;;;;;;;;;4945723;28;20473;-67
2021/10/31 11:19:15;;;;;;;3.15;1.70;;;;;;;;;;4946067;29;20019;-67
2021/10/31 11:21:41;;;;;;;2.97;1.70;;;;;;;;;;4940008;28;20043;-67
2021/10/31 11:24:06;;;;;;;5.13;1.67;;;;;;;;;;4932715;29;20735;-66
2021/10/31 11:26:32;;;;;;;3.25;1.70;;;;;;;;;;4942880;28;20495;-66
2021/10/31 11:28:57;;;;;;;4.03;1.73;;;;;;;;;;4939496;29;20023;-67
2021/10/31 11:31:22;;;;;;;6.60;1.98;;;;;;;;;;4947607;28;20055;-66
2021/10/31 11:33:49;;;;;;;2.75;1.60;;;;;;;;;;4939724;28;20034;-67
2021/10/31 11:36:14;;;;;;;3.20;1.98;;;;;;;;;;4940367;28;20040;-66
2021/10/31 11:38:40;;;;;;;2.83;1.70;;;;;;;;;;4945652;29;20027;-67
2021/10/31 11:41:08;;;;;;;2.83;1.83;;;;;;;;;;4940852;28;20031;-66
2021/10/31 11:43:34;;;;;;;3.70;1.80;;;;;;;;;;4947549;28;20035;-66
2021/10/31 11:45:59;;;;;;;2.35;1.80;;;;;;;;;;4944489;28;20413;-66
2021/10/31 11:48:31;;;;;;;2.90;2.00;;;;;;;;;;4946288;28;20011;-66
2021/10/31 11:50:59;;;;;;;3.20;1.90;;;;;;;;;;4933373;28;20524;-66
2021/10/31 11:53:25;;;;;;;3.50;1.80;;;;;;;;;;4942470;29;20140;-66
2021/10/31 11:55:51;;;;;;;1.58;1.27;;;;;;;;;;4941299;28;20024;-66
2021/10/31 11:58:41;;;;;;;3.95;1.70;;;;;;;;;;4947055;28;20039;-66
2021/10/31 12:01:16;;;;;;;2.77;1.67;;;;;;;;;;4936632;28;20047;-66
2021/10/31 12:03:43;;;;;;;3.20;1.50;;;;;;;;;;4947474;28;20415;-66
2021/10/31 12:06:15;;;;;;;3.83;1.40;;;;;;;;;;4939514;28;20090;-65
2021/10/31 12:08:46;;;;;;;1.77;1.45;;;;;;;;;;4948073;28;20023;-66
2021/10/31 12:11:12;;;;;;;4.72;1.50;;;;;;;;;;4939206;28;20173;-65
2021/10/31 12:13:41;;;;;;;2.58;1.60;;;;;;;;;;4944947;28;20482;-66
2021/10/31 12:16:11;;;;;;;3.30;1.52;;;;;;;;;;4943923;28;20039;-65
2021/10/31 12:18:43;;;;;;;3.83;1.80;;;;;;;;;;4960808;28;20042;-66
2021/10/31 12:21:28;;;;;;;2.70;1.80;;;;;;;;;;4945244;28;20031;-66
2021/10/31 12:23:55;;;;;;;2.00;1.35;;;;;;;;;;4946742;28;20061;-66
2021/10/31 12:26:21;;;;;;;2.30;1.70;;;;;;;;;;4942668;28;20040;-66
2021/10/31 12:28:46;;;;;;;2.80;1.80;;;;;;;;;;4945637;29;20024;-66
2021/10/31 12:31:22;;;;;;;3.53;1.80;;;;;;;;;;4951263;28;20047;-66
2021/10/31 12:34:07;;;;;;;1.90;1.50;;;;;;;;;;4942756;28;20028;-66
2021/10/31 12:36:32;;;;;;;4.22;1.70;;;;;;;;;;4948420;28;20501;-66
2021/10/31 12:38:58;;;;;;;2.67;1.90;;;;;;;;;;4948674;28;20082;-66
2021/10/31 12:41:23;;;;;;;2.08;1.40;;;;;;;;;;4939988;28;20433;-67
2021/10/31 12:43:50;;;;;;;2.40;1.63;;;;;;;;;;4937531;29;20557;-66
2021/10/31 12:46:20;;;;;;;2.00;1.60;;;;;;;;;;4946914;28;20024;-65
2021/10/31 12:48:45;;;;;;;3.08;1.88;;;;;;;;;;4945763;28;20449;-66
2021/10/31 12:51:12;;;;;;;2.45;1.80;;;;;;;;;;4943312;28;20071;-66
2021/10/31 12:53:38;;;;;;;2.65;1.73;;;;;;;;;;4941045;29;20028;-67
2021/10/31 12:56:03;;;;;;;1.88;1.55;;;;;;;;;;4949790;28;20043;-66
2021/10/31 12:58:29;;;;;;;3.22;1.98;;;;;;;;;;4948406;29;20034;-66
2021/10/31 13:00:54;;;;;;;2.53;1.40;;;;;;;;;;4945222;28;20098;-66
2021/10/31 13:03:19;;;;;;;2.80;1.70;;;;;;;;;;4944418;29;20027;-66
2021/10/31 13:05:44;;;;;;;4.32;1.63;;;;;;;;;;4938814;28;20039;-66
2021/10/31 13:08:10;;;;;;;4.93;1.90;;;;;;;;;;4950001;28;20020;-65
2021/10/31 13:10:42;;;;;;;1.83;1.58;;;;;;;;;;4949942;28;20031;-67
2021/10/31 13:13:12;;;;;;;2.47;1.75;;;;;;;;;;4958687;28;20491;-67
2021/10/31 13:15:38;;;;;;;4.28;2.10;;;;;;;;;;4947959;28;20090;-68
2021/10/31 13:18:11;;;;;;;4.40;2.05;;;;;;;;;;4948176;28;20904;-67
2021/10/31 13:20:36;;;;;;;4.20;2.53;;;;;;;;;;4948746;28;20037;-66
2021/10/31 13:23:06;;;;;;;2.25;1.60;;;;;;;;;;4946759;28;20031;-66
2021/10/31 13:25:35;;;;;;;4.65;1.83;;;;;;;;;;4944873;28;20047;-65
2021/10/31 13:28:00;;;;;;;3.80;2.00;;;;;;;;;;4942180;28;20024;-65
2021/10/31 13:30:26;;;;;;;2.17;1.52;;;;;;;;;;4940114;28;20281;-66
2021/10/31 13:32:54;;;;;;;2.78;1.75;;;;;;;;;;4947404;28;20039;-65
2021/10/31 13:35:20;;;;;;;3.97;2.00;;;;;;;;;;4947686;28;20046;-65
2021/10/31 13:37:45;;;;;;;2.90;1.90;;;;;;;;;;4945394;28;20017;-67
2021/10/31 13:40:11;;;;;;;2.72;1.70;;;;;;;;;;4946015;28;20027;-66
2021/10/31 13:42:37;;;;;;;2.80;1.85;;;;;;;;;;4949425;28;20023;-66
2021/10/31 13:45:04;;;;;;;2.58;1.70;;;;;;;;;;4943620;28;20062;-67
2021/10/31 13:47:32;;;;;;;3.20;2.00;;;;;;;;;;4943585;28;20023;-66
2021/10/31 13:49:58;;;;;;;2.28;1.65;;;;;;;;;;4949610;28;20041;-65
2021/10/31 13:52:24;;;;;;;2.40;1.70;;;;;;;;;;4947760;28;20482;-65
2021/10/31 13:54:49;;;;;;;3.40;1.80;;;;;;;;;;4948276;29;20050;-67
2021/10/31 13:57:18;;;;;;;2.55;1.67;;;;;;;;;;4947464;28;20039;-66
2021/10/31 13:59:46;;;;;;;2.85;1.80;;;;;;;;;;4947242;28;20485;-66
2021/10/31 14:02:18;;;;;;;4.88;2.20;;;;;;;;;;4950874;28;20035;-65
2021/10/31 14:04:43;;;;;;;5.20;2.70;;;;;;;;;;4943199;28;20027;-65
2021/10/31 14:07:11;;;;;;;3.65;1.80;;;;;;;;;;4948920;28;20513;-66
2021/10/31 14:09:43;;;;;;;3.50;1.60;;;;;;;;;;4940923;28;20034;-66
2021/10/31 14:12:08;;;;;;;2.30;1.70;;;;;;;;;;4947678;28;20121;-65
2021/10/31 14:14:33;;;;;;;4.13;1.60;;;;;;;;;;4959600;28;20071;-66
2021/10/31 14:17:11;;;;;;;2.00;1.40;;;;;;;;;;4947341;28;20094;-67
2021/10/31 14:19:37;;;;;;;2.03;1.60;;;;;;;;;;4941450;28;20158;-65
2021/10/31 14:22:03;;;;;;;4.30;1.75;;;;;;;;;;4933527;29;20036;-65
2021/10/31 14:24:28;;;;;;;1.95;1.40;;;;;;;;;;4949054;28;20407;-66
2021/10/31 14:26:53;;;;;;;2.00;1.30;;;;;;;;;;4948416;28;20046;-65
2021/10/31 14:29:24;;;;;;;1.70;1.30;;;;;;;;;;4948728;28;20037;-66
2021/10/31 14:31:50;;;;;;;1.45;1.27;;;;;;;;;;4946491;28;20040;-66
2021/10/31 14:34:16;;;;;;;3.53;1.15;;;;;;;;;;4941542;28;20034;-66
2021/10/31 14:36:41;;;;;;;1.30;1.20;;;;;;;;;;4948692;28;20039;-67
2021/10/31 14:39:08;;;;;;;2.60;1.60;;;;;;;;;;4948353;28;20053;-67
2021/10/31 14:41:34;;;;;;;1.83;1.40;;;;;;;;;;4941583;28;20043;-67